Time;durP1;ratioP1;P1;durP2;ratioP2;P2;SDS_P1;SDS_P2;PMS_P1;PMS_P2;Temp;Humidity;BMP_temperature;BMP_pressure;BME280_temperature;BME280_humidity;BME280_pressure;Samples;Min_cycle;Max_cycle;Signal;HPM_P1;HPM_P2
2022/03/20 00:01:43;;;;;;;8.63;6.15;;;5.00;99.90;;;;;;2151758;66;20177;-74
2022/03/20 00:04:28;;;;;;;8.27;5.75;;;4.90;99.90;;;;;;2151706;66;20360;-73
2022/03/20 00:07:11;;;;;;;8.38;5.63;;;4.90;99.90;;;;;;2146278;66;20289;-74
2022/03/20 00:09:53;;;;;;;13.35;6.03;;;4.90;99.90;;;;;;2153622;66;20369;-74
2022/03/20 00:12:36;;;;;;;9.98;5.05;;;4.90;99.90;;;;;;2147316;66;20809;-74
2022/03/20 00:15:18;;;;;;;8.60;5.63;;;4.80;99.90;;;;;;2153555;66;20234;-73
2022/03/20 00:18:03;;;;;;;9.63;6.13;;;4.80;99.90;;;;;;2146854;66;20232;-73
2022/03/20 00:20:48;;;;;;;10.75;5.97;;;4.80;99.90;;;;;;2152303;66;20470;-73
2022/03/20 00:23:30;;;;;;;10.30;5.90;;;4.80;99.90;;;;;;2144226;66;20299;-73
2022/03/20 00:26:16;;;;;;;12.30;5.57;;;4.70;99.90;;;;;;2137283;66;20792;-74
2022/03/20 00:28:58;;;;;;;;;;;4.80;99.90;;;;;;2138256;66;20294;-74
2022/03/20 00:31:40;;;;;;;10.40;5.45;;;5.40;99.90;;;;;;2145318;66;20066;-73
2022/03/20 00:34:22;;;;;;;6.63;5.32;;;4.70;99.90;;;;;;2150467;66;20352;-74
2022/03/20 00:37:05;;;;;;;8.02;5.18;;;4.70;99.90;;;;;;2152205;66;20415;-73
2022/03/20 00:39:47;;;;;;;8.05;5.72;;;4.70;99.90;;;;;;2130148;67;20325;-74
2022/03/20 00:42:29;;;;;;;8.20;6.18;;;4.60;99.90;;;;;;2123818;67;20267;-73
2022/03/20 00:45:11;;;;;;;10.40;6.20;;;4.60;99.90;;;;;;2116211;67;20173;-73
2022/03/20 00:47:53;;;;;;;7.78;5.90;;;4.60;99.90;;;;;;2117070;67;20270;-73
2022/03/20 00:50:36;;;;;;;8.60;6.00;;;4.60;99.90;;;;;;2121577;67;20658;-73
2022/03/20 00:53:18;;;;;;;8.23;5.35;;;4.50;99.90;;;;;;2110168;67;20280;-73
2022/03/20 00:56:01;;;;;;;10.57;5.78;;;3.90;99.90;;;;;;2114668;67;20367;-73
2022/03/20 00:58:48;;;;;;;8.30;5.50;;;4.50;99.90;;;;;;2131101;67;20211;-72
2022/03/20 01:01:31;;;;;;;9.90;5.22;;;4.50;99.90;;;;;;2129502;67;20425;-74
2022/03/20 01:04:13;;;;;;;8.10;5.00;;;4.40;99.90;;;;;;2123672;67;20184;-74
2022/03/20 01:07:00;;;;;;;9.80;5.80;;;4.30;99.90;;;;;;2124473;67;20403;-73
2022/03/20 01:09:45;;;;;;;12.77;6.05;;;4.40;99.90;;;;;;2119458;67;20165;-73
2022/03/20 01:12:32;;;;;;;5.60;4.35;;;4.30;99.90;;;;;;2105262;67;20753;-74
2022/03/20 01:15:18;;;;;;;8.88;5.30;;;4.30;99.90;;;;;;2117713;67;20659;-73
2022/03/20 01:18:04;;;;;;;12.40;5.75;;;4.30;99.90;;;;;;2110349;67;20426;-73
2022/03/20 01:20:46;;;;;;;9.02;5.63;;;4.30;99.90;;;;;;2125805;67;20417;-74
2022/03/20 01:23:30;;;;;;;9.67;6.23;;;4.30;99.90;;;;;;2147932;66;20226;-74
2022/03/20 01:26:12;;;;;;;10.02;6.07;;;4.20;99.90;;;;;;2145570;66;20371;-73
2022/03/20 01:28:54;;;;;;;10.95;5.55;;;4.20;99.90;;;;;;2126193;67;20292;-73
2022/03/20 01:31:40;;;;;;;9.55;5.78;;;4.10;99.90;;;;;;2123760;67;20367;-73
2022/03/20 01:34:21;;;;;;;7.82;5.53;;;4.10;99.90;;;;;;2109857;67;20185;-73
2022/03/20 01:37:05;;;;;;;11.05;6.43;;;4.10;99.90;;;;;;2111854;67;20207;-74
2022/03/20 01:39:47;;;;;;;11.27;5.65;;;4.00;99.90;;;;;;2125183;67;20645;-74
2022/03/20 01:42:32;;;;;;;8.20;5.95;;;4.00;99.90;;;;;;2124741;67;20168;-74
2022/03/20 01:45:18;;;;;;;12.15;6.95;;;4.00;99.90;;;;;;2116564;67;20205;-74
2022/03/20 01:47:59;;;;;;;10.10;5.68;;;3.90;99.90;;;;;;2119290;67;20309;-74
2022/03/20 01:50:43;;;;;;;9.02;5.85;;;4.10;99.90;;;;;;2112146;67;20182;-72
2022/03/20 01:53:27;;;;;;;8.45;5.78;;;3.80;99.90;;;;;;2103748;67;20362;-73
2022/03/20 01:56:09;;;;;;;10.82;6.50;;;3.90;99.90;;;;;;2111765;67;20335;-74
2022/03/20 01:58:50;;;;;;;15.02;8.13;;;3.80;99.90;;;;;;2091041;68;20325;-74
2022/03/20 02:01:33;;;;;;;9.70;6.45;;;3.80;99.90;;;;;;2091876;67;20179;-74
2022/03/20 02:04:15;;;;;;;13.00;7.43;;;3.80;99.90;;;;;;2112038;67;20178;-73
2022/03/20 02:06:59;;;;;;;11.07;6.93;;;3.80;99.90;;;;;;2118434;67;20233;-73
2022/03/20 02:09:41;;;;;;;11.07;7.28;;;3.70;99.90;;;;;;2131801;67;20292;-74
2022/03/20 02:12:24;;;;;;;10.50;6.30;;;3.70;99.90;;;;;;2133103;67;20500;-74
2022/03/20 02:15:12;;;;;;;10.50;6.82;;;3.70;99.90;;;;;;2119284;67;20181;-73
2022/03/20 02:17:56;;;;;;;12.20;7.28;;;3.70;99.90;;;;;;2117733;67;20670;-74
2022/03/20 02:20:38;;;;;;;12.25;7.47;;;3.60;99.90;;;;;;2117469;67;20214;-73
2022/03/20 02:23:21;;;;;;;10.27;6.90;;;3.60;99.90;;;;;;2115762;67;20173;-73
2022/03/20 02:26:03;;;;;;;15.88;8.45;;;3.50;99.90;;;;;;2106851;67;20917;-73
2022/03/20 02:28:48;;;;;;;11.87;7.00;;;3.50;99.90;;;;;;2111674;67;20362;-74
2022/03/20 02:31:30;;;;;;;14.27;8.07;;;3.50;99.90;;;;;;2110117;67;20719;-73
2022/03/20 02:34:13;;;;;;;12.13;8.10;;;3.40;99.90;;;;;;2118444;67;20200;-74
2022/03/20 02:36:59;;;;;;;9.93;7.88;;;3.40;99.90;;;;;;2125050;67;20392;-74
2022/03/20 02:39:42;;;;;;;10.73;7.97;;;3.40;99.90;;;;;;2123702;67;21154;-73
2022/03/20 02:42:26;;;;;;;13.20;7.53;;;3.40;99.90;;;;;;2117246;67;20387;-73
2022/03/20 02:45:31;;;;;;;11.15;7.75;;;3.30;99.90;;;;;;2117351;67;20279;-75
2022/03/20 02:48:16;;;;;;;16.95;8.50;;;3.30;99.90;;;;;;2123950;67;20332;-73
2022/03/20 02:50:58;;;;;;;13.27;8.35;;;3.30;99.90;;;;;;2136760;66;20737;-73
2022/03/20 02:53:41;;;;;;;15.55;9.40;;;3.30;99.90;;;;;;2139299;66;20323;-75
2022/03/20 02:56:27;;;;;;;16.95;9.20;;;3.20;99.90;;;;;;2150649;66;20677;-74
2022/03/20 02:59:10;;;;;;;12.27;7.85;;;3.40;99.90;;;;;;2146066;66;20886;-73
2022/03/20 03:01:52;;;;;;;14.10;8.50;;;3.30;99.90;;;;;;2140234;66;20170;-74
2022/03/20 03:04:37;;;;;;;15.13;8.98;;;3.20;99.90;;;;;;2133259;67;20715;-73
2022/03/20 03:10:56;;;;;;;13.70;9.02;;;3.20;99.90;;;;;;2155169;66;20811;-74
2022/03/20 03:13:38;;;;;;;14.05;8.82;;;3.20;99.90;;;;;;2153539;66;20274;-72
2022/03/20 03:16:24;;;;;;;13.68;8.70;;;3.20;99.90;;;;;;2153591;66;20162;-73
2022/03/20 03:19:06;;;;;;;13.88;8.82;;;3.20;99.90;;;;;;2152222;66;21089;-74
2022/03/20 03:21:47;;;;;;;14.88;9.00;;;3.10;99.90;;;;;;2145084;66;20326;-73
2022/03/20 03:24:30;;;;;;;15.82;10.05;;;3.10;99.90;;;;;;2137134;66;20228;-73
2022/03/20 03:27:12;;;;;;;13.25;9.13;;;3.10;99.90;;;;;;2122628;67;20188;-73
2022/03/20 03:29:55;;;;;;;14.18;9.73;;;3.10;99.90;;;;;;2133946;66;20179;-74
2022/03/20 03:32:38;;;;;;;13.57;9.88;;;3.10;99.90;;;;;;2132423;67;20214;-74
2022/03/20 03:38:27;;;;;;;16.00;9.75;;;3.10;99.90;;;;;;2138790;67;20183;-73
2022/03/20 03:41:09;;;;;;;15.32;9.85;;;3.10;99.90;;;;;;2133173;66;20282;-73
2022/03/20 03:43:52;;;;;;;15.20;9.60;;;3.00;99.90;;;;;;2139561;66;20221;-73
2022/03/20 03:46:35;;;;;;;15.18;11.07;;;3.10;99.90;;;;;;2135060;66;20230;-72
2022/03/20 03:49:20;;;;;;;;;;;3.00;99.90;;;;;;2132307;67;20865;-74
2022/03/20 03:52:03;;;;;;;15.75;9.50;;;3.00;99.90;;;;;;2130757;67;20610;-74
2022/03/20 03:54:47;;;;;;;19.52;10.07;;;3.00;99.90;;;;;;2117153;67;20178;-74
2022/03/20 03:57:31;;;;;;;14.15;10.35;;;3.00;99.90;;;;;;2124128;67;20247;-74
2022/03/20 04:00:15;;;;;;;14.70;9.77;;;2.90;99.90;;;;;;2134092;67;20331;-74
2022/03/20 04:02:58;;;;;;;15.18;9.82;;;2.90;99.90;;;;;;2144862;66;20865;-73
2022/03/20 04:05:42;;;;;;;16.17;10.23;;;2.90;99.90;;;;;;2145562;66;20821;-73
2022/03/20 04:08:26;;;;;;;15.35;10.52;;;2.90;99.90;;;;;;2151246;66;20169;-74
2022/03/20 04:11:10;;;;;;;14.25;10.18;;;2.90;99.90;;;;;;2151800;66;20250;-73
2022/03/20 04:13:58;;;;;;;14.43;10.02;;;2.90;99.90;;;;;;2159427;66;20164;-73
2022/03/20 04:16:40;;;;;;;13.32;10.13;;;2.80;99.90;;;;;;2154861;66;20184;-73
2022/03/20 04:19:22;;;;;;;15.23;10.38;;;2.80;99.90;;;;;;2153045;66;20254;-74
2022/03/20 04:22:08;;;;;;;14.38;9.52;;;2.80;99.90;;;;;;2145474;66;20597;-74
2022/03/20 04:24:52;;;;;;;16.08;10.93;;;2.70;99.90;;;;;;2153906;66;20314;-73
2022/03/20 04:27:40;;;;;;;12.75;9.52;;;2.70;99.90;;;;;;2141043;67;20406;-72
2022/03/20 04:30:25;;;;;;;15.15;11.50;;;2.70;99.90;;;;;;2138580;67;20300;-76
2022/03/20 04:33:08;;;;;;;15.63;10.00;;;2.70;99.90;;;;;;2138793;67;20171;-73
2022/03/20 04:35:53;;;;;;;12.48;10.35;;;2.60;99.90;;;;;;2144866;66;20403;-74
2022/03/20 04:38:59;;;;;;;16.83;10.35;;;2.60;99.90;;;;;;2146515;66;20463;-74
2022/03/20 04:41:46;;;;;;;15.57;11.15;;;2.60;99.90;;;;;;2133426;67;20400;-73
2022/03/20 04:44:27;;;;;;;15.70;10.60;;;2.60;99.90;;;;;;2128200;67;20336;-73
2022/03/20 04:58:29;;;;;;;15.73;10.98;;;2.60;99.90;;;;;;2130164;67;20319;-74
2022/03/20 04:59:12;;;;;;;14.02;10.98;;;2.50;99.90;;;;;;2110723;67;20337;-74
2022/03/20 05:01:55;;;;;;;15.10;11.57;;;2.50;99.90;;;;;;2111128;67;20237;-74
2022/03/20 05:04:41;;;;;;;17.27;10.52;;;2.50;99.90;;;;;;2112471;67;20318;-74
2022/03/20 05:07:25;;;;;;;15.35;10.90;;;2.40;99.90;;;;;;2110157;67;20194;-74
2022/03/20 05:13:20;;;;;;;17.80;12.07;;;2.40;99.90;;;;;;2110803;67;20351;-74
2022/03/20 05:16:01;;;;;;;18.75;11.02;;;2.40;99.90;;;;;;2125136;67;20293;-74
2022/03/20 05:18:44;;;;;;;17.63;12.15;;;2.40;99.90;;;;;;2124949;67;20184;-75
2022/03/20 05:21:27;;;;;;;17.40;11.48;;;2.40;99.90;;;;;;2134806;66;20370;-73
2022/03/20 05:24:13;;;;;;;16.50;10.32;;;2.40;99.90;;;;;;2136986;66;20728;-74
2022/03/20 05:26:56;;;;;;;21.80;12.90;;;2.40;99.90;;;;;;2148457;66;20697;-74
2022/03/20 05:29:43;;;;;;;16.20;11.20;;;2.30;99.90;;;;;;2141109;66;20737;-73
2022/03/20 05:32:25;;;;;;;19.50;12.45;;;2.30;99.90;;;;;;2139173;66;20421;-74
2022/03/20 05:35:27;;;;;;;18.70;12.18;;;2.30;99.90;;;;;;2132744;66;20332;-74
2022/03/20 05:38:12;;;;;;;18.02;11.93;;;2.30;99.90;;;;;;2114490;67;20803;-74
2022/03/20 05:41:45;;;;;;;17.92;12.90;;;2.30;99.90;;;;;;2111390;67;20289;-73
2022/03/20 05:43:57;;;;;;;20.40;12.82;;;2.30;99.90;;;;;;2103711;67;20344;-74
2022/03/20 05:46:40;;;;;;;17.92;12.32;;;2.20;99.90;;;;;;2100817;68;20944;-74
2022/03/20 05:49:24;;;;;;;21.23;12.77;;;2.20;99.90;;;;;;2101935;67;20582;-73
2022/03/20 05:52:06;;;;;;;17.48;12.40;;;2.20;99.90;;;;;;2112068;67;20205;-73
2022/03/20 05:54:51;;;;;;;;;;;2.30;99.90;;;;;;2102568;67;20190;-73
2022/03/20 06:00:42;;;;;;;19.73;12.88;;;2.20;99.90;;;;;;2117352;67;20712;-74
2022/03/20 06:03:24;;;;;;;25.55;13.57;;;2.30;99.90;;;;;;2114655;67;20221;-74
2022/03/20 06:06:07;;;;;;;17.83;11.80;;;2.30;99.90;;;;;;2117224;67;20408;-74
2022/03/20 06:08:49;;;;;;;20.65;13.05;;;2.30;99.90;;;;;;2127190;67;20175;-75
2022/03/20 06:11:34;;;;;;;18.92;12.05;;;2.30;99.90;;;;;;2125592;67;20392;-74
2022/03/20 06:14:17;;;;;;;19.70;12.40;;;2.30;99.90;;;;;;2105275;67;20347;-74
2022/03/20 06:16:59;;;;;;;21.40;13.02;;;2.40;99.90;;;;;;2112699;67;20740;-74
2022/03/20 06:19:42;;;;;;;17.30;11.80;;;2.40;99.90;;;;;;2125532;67;20468;-74
2022/03/20 06:22:25;;;;;;;19.88;12.73;;;2.40;99.90;;;;;;2123967;67;20789;-74
2022/03/20 06:25:09;;;;;;;20.90;13.68;;;2.40;99.90;;;;;;2113270;67;20329;-73
2022/03/20 06:28:10;;;;;;;19.63;13.27;;;2.50;99.90;;;;;;2113435;67;20169;-73
2022/03/20 06:30:52;;;;;;;17.55;12.55;;;2.50;99.90;;;;;;2118213;67;20184;-73
2022/03/20 06:33:36;;;;;;;15.68;11.40;;;2.50;99.90;;;;;;2104905;67;20203;-73
2022/03/20 06:36:21;;;;;;;17.33;13.15;;;2.60;99.90;;;;;;2104850;67;20273;-73
2022/03/20 06:39:03;;;;;;;17.73;12.65;;;2.60;99.90;;;;;;2117585;67;20456;-72
2022/03/20 06:41:46;;;;;;;17.48;12.25;;;2.60;99.90;;;;;;2119138;67;20488;-77
2022/03/20 06:44:28;;;;;;;19.52;12.50;;;2.70;99.90;;;;;;2111534;67;20689;-73
2022/03/20 06:47:11;;;;;;;20.85;13.30;;;2.70;99.90;;;;;;2117832;67;20780;-73
2022/03/20 06:50:12;;;;;;;18.55;12.75;;;2.70;99.90;;;;;;2129722;67;20252;-72
2022/03/20 06:52:54;;;;;;;21.48;12.93;;;2.80;99.90;;;;;;2123719;67;20419;-75
2022/03/20 06:55:52;;;;;;;20.85;13.77;;;2.80;99.90;;;;;;2108656;67;20198;-75
2022/03/20 06:58:35;;;;;;;18.70;13.20;;;2.90;99.90;;;;;;2103369;68;20301;-73
2022/03/20 07:01:17;;;;;;;18.77;13.60;;;2.90;99.90;;;;;;2108095;67;20193;-74
2022/03/20 07:04:01;;;;;;;17.55;13.43;;;3.00;99.90;;;;;;2117220;67;20350;-73
2022/03/20 07:06:48;;;;;;;17.52;13.02;;;3.00;99.90;;;;;;2121389;67;20338;-73
2022/03/20 07:09:30;;;;;;;22.15;12.43;;;3.00;99.90;;;;;;2114939;67;20421;-73
2022/03/20 07:12:12;;;;;;;17.55;12.30;;;3.10;99.90;;;;;;2111242;67;20186;-74
2022/03/20 07:14:55;;;;;;;18.35;13.15;;;3.20;99.90;;;;;;2117137;67;20564;-74
2022/03/20 07:17:37;;;;;;;19.98;13.52;;;3.20;99.90;;;;;;2123781;67;20700;-74
2022/03/20 07:20:20;;;;;;;19.13;12.75;;;3.20;99.90;;;;;;2117077;67;20690;-74
2022/03/20 07:23:02;;;;;;;19.00;12.63;;;3.30;99.90;;;;;;2104568;67;20692;-74
2022/03/20 07:31:46;;;;;;;18.25;12.57;;;3.50;99.90;;;;;;2112277;67;20181;-73
2022/03/20 07:34:32;;;;;;;19.77;12.27;;;3.60;99.90;;;;;;2126311;67;20341;-73
2022/03/20 07:37:18;;;;;;;17.85;12.98;;;3.60;99.90;;;;;;2123797;67;20178;-73
2022/03/20 07:40:00;;;;;;;16.33;13.00;;;4.00;99.90;;;;;;2132605;67;20264;-74
2022/03/20 07:42:43;;;;;;;19.08;13.55;;;3.70;99.90;;;;;;2126257;67;20360;-74
2022/03/20 07:45:32;;;;;;;19.35;13.10;;;3.80;99.90;;;;;;2139292;66;20176;-73
2022/03/20 07:48:21;;;;;;;25.38;14.77;;;3.90;99.90;;;;;;2147029;66;20319;-75
2022/03/20 07:51:05;;;;;;;17.67;13.30;;;3.90;99.90;;;;;;2145537;66;20190;-74
2022/03/20 07:53:50;;;;;;;18.23;13.07;;;4.00;99.90;;;;;;2134515;66;20302;-74
2022/03/20 07:56:35;;;;;;;19.42;13.00;;;4.10;99.90;;;;;;2125221;67;20240;-73
2022/03/20 07:59:17;;;;;;;17.90;13.35;;;4.20;99.90;;;;;;2124010;67;20264;-74
2022/03/20 08:01:58;;;;;;;19.05;13.60;;;4.30;99.90;;;;;;2119603;67;20243;-74
2022/03/20 08:04:41;;;;;;;18.98;12.45;;;4.30;99.90;;;;;;2119827;67;20357;-74
2022/03/20 08:07:24;;;;;;;20.20;13.73;;;4.30;99.90;;;;;;2110373;67;20412;-73
2022/03/20 08:10:10;;;;;;;18.80;13.45;;;4.40;99.90;;;;;;2118250;67;20181;-73
2022/03/20 08:12:54;;;;;;;20.48;13.57;;;4.40;99.90;;;;;;2118230;67;20385;-74
2022/03/20 08:15:46;;;;;;;17.98;12.85;;;4.50;99.90;;;;;;2120439;67;20529;-72
2022/03/20 08:18:28;;;;;;;17.65;12.63;;;4.50;99.90;;;;;;2117134;67;20259;-73
2022/03/20 08:21:33;;;;;;;19.50;13.32;;;4.60;99.90;;;;;;2112837;67;20173;-74
2022/03/20 08:24:16;;;;;;;18.33;13.10;;;4.60;99.90;;;;;;2107597;67;20877;-73
2022/03/20 08:26:58;;;;;;;18.95;13.63;;;4.70;99.90;;;;;;2127749;67;20224;-73
2022/03/20 08:29:42;;;;;;;19.35;13.57;;;4.80;99.90;;;;;;2123097;67;20815;-73
2022/03/20 08:32:27;;;;;;;22.08;13.90;;;4.90;99.90;;;;;;2111650;67;20671;-73
2022/03/20 08:35:14;;;;;;;15.18;12.25;;;4.90;99.90;;;;;;2102981;68;20265;-74
2022/03/20 08:37:55;;;;;;;21.05;14.68;;;5.00;99.90;;;;;;2110053;67;20324;-74
2022/03/20 08:40:38;;;;;;;21.27;14.27;;;5.10;99.90;;;;;;2124111;67;20396;-73
2022/03/20 08:43:21;;;;;;;21.00;13.43;;;5.20;99.90;;;;;;2130625;67;20440;-72
2022/03/20 08:46:03;;;;;;;19.42;13.60;;;5.30;99.90;;;;;;2128993;67;20270;-74
2022/03/20 08:48:47;;;;;;;21.50;14.88;;;5.30;99.90;;;;;;2121490;67;20229;-73
2022/03/20 08:51:34;;;;;;;19.40;13.90;;;5.40;99.90;;;;;;2129645;67;20803;-74
2022/03/20 08:54:16;;;;;;;17.45;12.88;;;5.50;99.90;;;;;;2137440;67;20182;-74
2022/03/20 08:57:01;;;;;;;20.48;14.48;;;5.60;99.90;;;;;;2137398;67;20183;-73
2022/03/20 08:59:45;;;;;;;22.67;15.05;;;5.70;99.90;;;;;;2118057;67;20184;-73
2022/03/20 09:02:28;;;;;;;18.20;14.73;;;5.70;99.90;;;;;;2124165;67;20447;-72
2022/03/20 09:05:12;;;;;;;18.40;14.57;;;5.90;99.90;;;;;;2118105;67;20201;-74
2022/03/20 09:07:57;;;;;;;18.48;14.27;;;5.90;99.90;;;;;;2118128;67;20214;-74
2022/03/20 09:10:38;;;;;;;20.50;15.30;;;6.00;98.70;;;;;;2136758;67;20305;-73
2022/03/20 09:13:20;;;;;;;18.02;14.82;;;6.10;98.10;;;;;;2124325;67;20266;-75
2022/03/20 09:19:06;;;;;;;20.45;14.88;;;6.20;97.90;;;;;;2129875;67;20187;-75
2022/03/20 09:21:48;;;;;;;25.10;15.75;;;6.30;97.50;;;;;;2136926;67;20719;-75
2022/03/20 09:24:31;;;;;;;23.70;15.50;;;6.50;96.10;;;;;;2131835;67;20353;-75
2022/03/20 09:27:15;;;;;;;18.23;14.10;;;6.50;95.60;;;;;;2139474;66;20222;-74
2022/03/20 09:30:11;;;;;;;20.13;15.05;;;6.70;94.70;;;;;;2123635;67;20366;-73
2022/03/20 09:32:55;;;;;;;20.97;15.27;;;6.70;94.00;;;;;;2117423;67;20639;-72
2022/03/20 09:35:42;;;;;;;22.77;15.23;;;6.80;93.40;;;;;;2121700;67;20494;-73
2022/03/20 09:38:29;;;;;;;19.73;14.85;;;6.80;92.70;;;;;;2113946;67;20169;-73
2022/03/20 09:41:14;;;;;;;23.42;15.82;;;6.90;92.40;;;;;;2105381;68;20321;-74
2022/03/20 09:43:53;;;;;;;20.23;15.45;;;6.90;92.60;;;;;;2115454;67;20204;-74
2022/03/20 09:46:26;;;;;;;21.75;16.27;;;7.00;92.30;;;;;;2124916;67;20176;-73
2022/03/20 09:49:07;;;;;;;20.40;16.17;;;7.10;92.20;;;;;;2113266;67;20209;-74
2022/03/20 09:51:49;;;;;;;22.85;16.33;;;7.20;91.40;;;;;;2126798;67;20184;-74
2022/03/20 09:54:20;;;;;;;22.50;16.35;;;7.30;90.60;;;;;;2137728;66;20170;-73
2022/03/20 09:57:11;;;;;;;21.58;15.50;;;7.50;90.40;;;;;;2146575;66;20563;-73
2022/03/20 09:59:41;;;;;;;22.67;17.08;;;7.50;87.90;;;;;;2145168;66;20230;-73
2022/03/20 10:02:19;;;;;;;22.08;15.00;;;7.60;85.50;;;;;;2139468;67;20278;-73
2022/03/20 10:05:04;;;;;;;19.65;16.60;;;7.80;84.30;;;;;;2140656;66;20673;-73
2022/03/20 10:07:43;;;;;;;23.70;15.77;;;7.80;82.20;;;;;;2170527;65;20661;-74
2022/03/20 10:10:32;;;;;;;21.40;15.40;;;7.90;80.90;;;;;;2183716;65;20501;-74
2022/03/20 10:13:13;;;;;;;23.17;17.02;;;8.00;78.90;;;;;;2199979;65;20176;-75
2022/03/20 10:15:50;;;;;;;23.35;16.75;;;8.00;78.30;;;;;;2207654;64;20211;-74
2022/03/20 10:18:40;;;;;;;22.83;16.05;;;8.20;77.70;;;;;;2190723;65;20284;-73
2022/03/20 10:21:45;;;;;;;24.42;17.25;;;8.30;77.00;;;;;;2190435;65;20362;-73
2022/03/20 10:24:23;;;;;;;23.13;18.02;;;8.40;74.30;;;;;;2187708;65;20261;-73
2022/03/20 10:26:59;;;;;;;22.85;16.30;;;8.70;74.30;;;;;;2188873;65;20181;-73
2022/03/20 10:29:47;;;;;;;23.85;15.80;;;8.70;72.90;;;;;;2189787;65;20386;-73
2022/03/20 10:32:26;;;;;;;21.02;16.52;;;8.60;73.20;;;;;;2190058;65;20197;-74
2022/03/20 10:35:13;;;;;;;24.50;17.58;;;8.80;71.80;;;;;;2189399;65;20178;-73
2022/03/20 10:37:57;;;;;;;21.85;17.38;;;8.90;70.70;;;;;;2189230;65;20254;-75
2022/03/20 10:40:34;;;;;;;25.48;17.38;;;9.00;70.50;;;;;;2191792;65;20207;-74
2022/03/20 10:43:17;;;;;;;22.63;15.70;;;9.20;70.40;;;;;;2203302;64;20168;-74
2022/03/20 10:46:04;;;;;;;22.95;18.73;;;9.40;70.00;;;;;;2209700;64;20177;-74
2022/03/20 10:48:52;;;;;;;23.42;18.10;;;9.70;69.30;;;;;;2196021;65;20730;-75
2022/03/20 10:51:42;;;;;;;24.77;18.55;;;9.90;66.40;;;;;;2188686;65;20177;-73
2022/03/20 10:54:43;;;;;;;22.77;16.73;;;10.20;66.30;;;;;;2183216;65;20382;-75
2022/03/20 10:57:36;;;;;;;22.17;18.15;;;10.40;64.90;;;;;;2179959;65;20190;-75
2022/03/20 11:00:19;;;;;;;21.77;17.33;;;10.70;66.10;;;;;;2182824;65;20666;-76
2022/03/20 11:03:07;;;;;;;22.88;17.70;;;11.00;64.40;;;;;;2181251;65;20261;-76
2022/03/20 11:05:51;;;;;;;28.98;17.90;;;11.20;64.50;;;;;;2188682;65;20182;-72
2022/03/20 11:08:36;;;;;;;21.33;17.45;;;11.60;63.40;;;;;;2181536;65;20332;-75
2022/03/20 11:11:19;;;;;;;24.30;18.65;;;11.90;62.70;;;;;;2167039;65;20239;-71
2022/03/20 11:14:02;;;;;;;21.85;18.13;;;12.20;60.70;;;;;;2166021;65;20160;-71
2022/03/20 11:16:49;;;;;;;20.48;17.05;;;12.50;59.50;;;;;;2169129;65;20195;-72
2022/03/20 11:19:33;;;;;;;19.83;17.60;;;12.80;57.90;;;;;;2170010;65;20198;-72
2022/03/20 11:22:18;;;;;;;20.00;16.60;;;13.10;57.60;;;;;;2175468;65;20164;-76
2022/03/20 11:25:01;;;;;;;19.85;16.95;;;13.50;57.00;;;;;;2166269;65;20189;-77
2022/03/20 11:27:46;;;;;;;20.13;16.88;;;13.90;57.10;;;;;;2124410;67;20249;-73
2022/03/20 11:30:29;;;;;;;;;;;14.40;55.50;;;;;;2118668;67;20234;-76
2022/03/20 11:33:12;;;;;;;21.95;16.63;;;14.80;56.60;;;;;;2117682;67;20618;-76
2022/03/20 11:35:55;;;;;;;22.75;17.77;;;15.30;54.60;;;;;;2109267;67;20215;-75
2022/03/20 11:38:41;;;;;;;20.85;17.35;;;15.70;51.80;;;;;;2105654;67;20265;-76
2022/03/20 11:41:24;;;;;;;21.75;18.27;;;15.70;49.80;;;;;;2109584;67;20373;-78
2022/03/20 11:44:20;;;;;;;22.88;18.65;;;15.80;49.60;;;;;;1889073;67;15096681;-77
2022/03/20 11:47:17;;;;;;;20.10;17.92;;;16.20;48.30;;;;;;2101661;67;20406;-79
2022/03/20 11:50:17;;;;;;;23.27;18.25;;;16.30;47.60;;;;;;2096479;67;20258;-73
2022/03/20 11:53:05;;;;;;;22.00;18.48;;;16.40;46.80;;;;;;2101877;67;20634;-76
2022/03/20 11:55:47;;;;;;;;;;;16.50;46.30;;;;;;2101587;67;20398;-75
2022/03/20 11:58:30;;;;;;;25.60;18.33;;;16.60;47.70;;;;;;2094724;68;20218;-75
2022/03/20 12:01:13;;;;;;;20.42;18.15;;;16.80;47.20;;;;;;2089935;68;20179;-75
2022/03/20 12:04:21;;;;;;;21.02;16.55;;;17.40;46.50;;;;;;2101837;67;20370;-78
2022/03/20 12:07:29;;;;;;;18.23;16.33;;;18.00;45.50;;;;;;2116700;67;20326;-74
2022/03/20 12:10:30;;;;;;;19.30;17.30;;;18.40;43.50;;;;;;2101962;67;20201;-76
2022/03/20 12:13:32;;;;;;;21.95;17.63;;;18.60;42.80;;;;;;2094577;68;20271;-75
2022/03/20 12:16:43;;;;;;;21.77;18.02;;;18.70;42.70;;;;;;2101493;67;20225;-77
2022/03/20 12:19:44;;;;;;;20.85;17.42;;;19.00;43.00;;;;;;2111380;67;20244;-75
2022/03/20 12:22:26;;;;;;;20.83;18.65;;;19.50;41.30;;;;;;2116488;67;20228;-73
2022/03/20 12:25:13;;;;;;;21.10;18.15;;;19.80;41.20;;;;;;2102603;67;20366;-75
2022/03/20 12:27:55;;;;;;;21.15;18.30;;;20.20;39.80;;;;;;2114022;67;20260;-77
2022/03/20 12:30:47;;;;;;;19.95;17.80;;;20.40;38.90;;;;;;2135677;66;20209;-76
2022/03/20 12:33:31;;;;;;;19.20;17.10;;;20.50;38.70;;;;;;2115241;67;20240;-74
2022/03/20 12:36:28;;;;;;;20.42;18.33;;;20.90;38.70;;;;;;2088473;68;20588;-76
2022/03/20 12:39:20;;;;;;;22.88;19.35;;;21.30;36.60;;;;;;2110478;67;20231;-77
2022/03/20 12:42:18;;;;;;;22.10;17.60;;;21.40;37.60;;;;;;2109115;67;20343;-76
2022/03/20 12:45:05;;;;;;;20.58;17.98;;;21.70;37.60;;;;;;2115107;67;20264;-77
2022/03/20 12:48:15;;;;;;;20.88;18.65;;;21.60;37.50;;;;;;2121487;67;20653;-77
2022/03/20 12:51:04;;;;;;;19.85;17.85;;;22.00;37.00;;;;;;2125808;67;20263;-75
2022/03/20 12:53:48;;;;;;;20.83;18.05;;;22.30;36.50;;;;;;2130440;67;20667;-76
2022/03/20 12:56:50;;;;;;;19.80;17.73;;;22.50;36.40;;;;;;2123397;67;20326;-76
2022/03/20 12:59:58;;;;;;;22.65;17.98;;;22.60;35.90;;;;;;2117256;67;20991;-76
2022/03/20 13:03:04;;;;;;;20.70;18.25;;;22.50;35.30;;;;;;2121734;67;20651;-74
2022/03/20 13:05:52;;;;;;;20.23;17.77;;;22.50;34.80;;;;;;2130737;67;20327;-73
2022/03/20 13:08:46;;;;;;;20.13;18.00;;;22.40;34.70;;;;;;2117997;67;20335;-74
2022/03/20 13:11:58;;;;;;;19.48;17.40;;;22.40;34.20;;;;;;2117117;67;20193;-75
2022/03/20 13:14:48;;;;;;;21.50;18.52;;;22.50;34.50;;;;;;2108835;67;20221;-74
2022/03/20 13:17:36;;;;;;;22.98;18.05;;;22.60;34.60;;;;;;2131798;67;20202;-76
2022/03/20 13:20:28;;;;;;;21.00;18.85;;;23.00;34.30;;;;;;2151562;66;20330;-78
2022/03/20 13:23:13;;;;;;;22.15;18.42;;;22.40;34.40;;;;;;2137721;66;20583;-77
2022/03/20 13:26:00;;;;;;;21.90;18.50;;;21.60;34.60;;;;;;2110290;67;20174;-76
2022/03/20 13:28:43;;;;;;;24.67;18.88;;;20.60;35.50;;;;;;2124525;67;20949;-75
2022/03/20 13:31:25;;;;;;;21.58;18.75;;;19.80;36.00;;;;;;2124652;67;20199;-74
2022/03/20 13:34:16;;;;;;;24.58;18.90;;;19.30;36.70;;;;;;2112901;67;20728;-76
2022/03/20 13:37:06;;;;;;;21.40;17.50;;;18.90;37.00;;;;;;2116951;67;20731;-73
2022/03/20 13:39:56;;;;;;;23.50;17.90;;;18.70;37.30;;;;;;2108478;67;20245;-78
2022/03/20 13:42:48;;;;;;;17.48;15.43;;;18.50;37.60;;;;;;2109984;67;20262;-76
2022/03/20 13:45:38;;;;;;;20.45;16.77;;;19.00;39.40;;;;;;2116580;67;20645;-76
2022/03/20 13:48:22;;;;;;;21.67;17.45;;;20.00;37.70;;;;;;2095824;68;20372;-75
2022/03/20 13:51:05;;;;;;;22.98;18.25;;;21.10;36.80;;;;;;2095802;68;20299;-78
2022/03/20 13:54:10;;;;;;;23.58;18.20;;;21.70;36.00;;;;;;2106851;67;20587;-75
2022/03/20 13:57:11;;;;;;;20.10;17.92;;;22.50;35.80;;;;;;2119401;67;20844;-76
2022/03/20 14:00:03;;;;;;;21.70;18.27;;;22.90;35.60;;;;;;2110647;67;20343;-75
2022/03/20 14:03:05;;;;;;;20.90;17.83;;;22.90;34.60;;;;;;2117008;67;20334;-77
2022/03/20 14:05:52;;;;;;;22.17;18.73;;;22.70;34.40;;;;;;2122319;67;20200;-76
2022/03/20 14:08:51;;;;;;;19.27;16.70;;;22.80;34.10;;;;;;2124105;67;20313;-74
2022/03/20 14:11:33;;;;;;;19.85;17.55;;;21.90;34.50;;;;;;2110567;67;20242;-77
2022/03/20 14:14:16;;;;;;;19.88;17.52;;;21.70;35.30;;;;;;2095607;68;20222;-74
2022/03/20 14:17:02;;;;;;;20.70;18.08;;;22.10;35.00;;;;;;2117476;67;20432;-78
2022/03/20 14:19:48;;;;;;;19.70;17.50;;;22.10;34.40;;;;;;2122939;67;20243;-78
2022/03/20 14:22:47;;;;;;;20.52;17.50;;;21.30;34.80;;;;;;2125957;67;20188;-79
2022/03/20 14:26:01;;;;;;;19.70;17.60;;;20.20;35.80;;;;;;2119111;67;20243;-77
2022/03/20 14:28:45;;;;;;;21.88;16.58;;;19.10;36.70;;;;;;2120757;67;20240;-74
2022/03/20 14:41:31;;;;;;;22.55;18.00;;;17.50;39.10;;;;;;2131578;67;20222;-78
2022/03/20 14:44:30;;;;;;;22.52;17.75;;;17.10;39.90;;;;;;2139794;66;20380;-76
2022/03/20 14:47:19;;;;;;;21.67;16.83;;;16.50;40.30;;;;;;2135383;67;20985;-76
2022/03/20 14:50:08;;;;;;;22.10;17.30;;;16.30;41.70;;;;;;2125303;67;20321;-78
2022/03/20 14:52:53;;;;;;;19.33;16.70;;;15.80;41.70;;;;;;2133348;67;20163;-75
2022/03/20 14:55:40;;;;;;;24.55;17.85;;;15.60;42.10;;;;;;2118478;67;20212;-75